Terminal Aerodrome Forecast
Issued by NWS Wakefield, VA

Home | Current Version | Previous Version | Text Only | Print | Product List | Glossary On
Versions: 1 2 3 4 5 6 7 8 9 10 11 12 13 14
000
FTUS41 KAKQ 310500
TAFRIC
TAF
KRIC 310524Z 3106/0106 02005KT P6SM FEW050
     FM311400 03006KT P6SM SCT050 SCT250
     FM312300 04005KT P6SM FEW040 BKN100=

USA.gov is the U.S. government's official web portal to all federal, state and local government web resources and services.